createdAt,value
2017-09-02T00:00:03.060Z,12.3
2017-09-02T00:05:03.347Z,12.1
2017-09-02T00:10:02.986Z,12.1
2017-09-02T00:15:02.405Z,12.1
2017-09-02T00:20:03.063Z,12.0
2017-09-02T00:25:02.755Z,12.0
2017-09-02T00:30:03.361Z,11.8
2017-09-02T00:35:03.016Z,11.6
2017-09-02T00:40:02.571Z,11.8
2017-09-02T00:45:03.003Z,11.6
2017-09-02T00:50:02.534Z,11.6
2017-09-02T00:55:03.003Z,11.6
2017-09-02T01:00:02.435Z,11.3
2017-09-02T01:05:02.868Z,11.3
2017-09-02T01:10:02.559Z,11.3
2017-09-02T01:15:03.131Z,11.3
2017-09-02T01:20:02.581Z,11.3
2017-09-02T01:25:02.977Z,11.3
2017-09-02T01:30:02.539Z,11.3
2017-09-02T01:35:02.989Z,11.3
2017-09-02T01:40:02.528Z,11.3
2017-09-02T01:45:02.929Z,11.3
2017-09-02T01:50:02.567Z,11.3
2017-09-02T01:55:03.136Z,11.3
2017-09-02T02:00:02.528Z,11.3
2017-09-02T02:05:02.997Z,11.3
2017-09-02T02:10:02.525Z,11.3
2017-09-02T02:15:02.985Z,11.0
2017-09-02T02:20:02.604Z,10.8
2017-09-02T02:25:03.004Z,10.8
2017-09-02T02:30:02.474Z,11.1
2017-09-02T02:35:03.096Z,11.3
2017-09-02T02:40:02.688Z,11.3
2017-09-02T02:45:03.073Z,11.3
2017-09-02T02:50:02.654Z,11.3
2017-09-02T02:55:03.273Z,11.1
2017-09-02T03:00:02.722Z,11.3
2017-09-02T03:05:03.212Z,11.0
2017-09-02T03:10:02.968Z,11.0
2017-09-02T03:15:02.421Z,11.1
2017-09-02T03:20:03.035Z,11.0
2017-09-02T03:25:02.451Z,11.0
2017-09-02T03:30:02.931Z,11.1
2017-09-02T03:35:02.576Z,11.1
2017-09-02T03:40:03.103Z,11.0
2017-09-02T03:45:02.651Z,10.8
2017-09-02T03:50:03.285Z,11.0
2017-09-02T03:55:02.841Z,11.0
2017-09-02T04:00:02.432Z,10.8
2017-09-02T04:05:03.031Z,10.8
2017-09-02T04:10:02.990Z,10.8
2017-09-02T04:15:02.481Z,10.8
2017-09-02T04:20:02.898Z,10.8
2017-09-02T04:25:03.328Z,11.0
2017-09-02T04:30:02.460Z,10.8
2017-09-02T04:35:03.377Z,11.0
2017-09-02T04:40:02.831Z,11.1
2017-09-02T04:45:02.364Z,11.3
2017-09-02T04:50:02.817Z,11.3
2017-09-02T04:55:03.244Z,11.0
2017-09-02T05:00:02.823Z,11.0
2017-09-02T05:05:02.804Z,11.0
2017-09-02T05:10:03.339Z,11.0
2017-09-02T05:15:02.980Z,11.0
2017-09-02T05:20:02.407Z,11.0
2017-09-02T05:25:03.019Z,11.3
2017-09-02T05:30:02.460Z,11.3
2017-09-02T05:35:02.893Z,11.3
2017-09-02T05:40:02.444Z,11.3
2017-09-02T05:45:03.052Z,11.3
2017-09-02T05:50:02.438Z,11.3
2017-09-02T05:55:03.028Z,11.3
2017-09-02T06:00:02.748Z,11.3
2017-09-02T06:05:03.372Z,11.3
2017-09-02T06:10:03.006Z,11.3
2017-09-02T06:15:02.511Z,11.6
2017-09-02T06:20:03.005Z,11.3
2017-09-02T06:25:02.470Z,11.6
2017-09-02T06:30:02.902Z,11.6
2017-09-02T06:35:02.378Z,11.6
2017-09-02T06:40:03.004Z,12.0
2017-09-02T06:45:02.445Z,12.1
2017-09-02T06:50:02.856Z,12.5
2017-09-02T06:55:03.280Z,12.8
2017-09-02T07:00:03.090Z,13.1
2017-09-02T07:05:02.655Z,13.5
2017-09-02T07:10:03.127Z,13.6
2017-09-02T07:15:02.545Z,13.8
2017-09-02T07:20:03.041Z,13.8
2017-09-02T07:30:02.489Z,14.3
2017-09-02T07:35:03.230Z,14.5
2017-09-02T07:40:02.912Z,14.8
2017-09-02T07:45:03.305Z,15.0
2017-09-02T07:50:02.939Z,15.0
2017-09-02T07:55:02.466Z,14.8
2017-09-02T08:00:02.923Z,14.6
2017-09-02T08:05:02.408Z,15.3
2017-09-02T08:10:03.085Z,16.2
2017-09-02T08:15:02.639Z,16.6
2017-09-02T08:20:03.185Z,17.3
2017-09-02T08:25:02.768Z,18.1
2017-09-02T08:30:03.338Z,18.2
2017-09-02T08:35:02.819Z,18.2
2017-09-02T08:40:02.434Z,18.2
2017-09-02T08:45:02.849Z,18.7
2017-09-02T08:50:03.325Z,19.2
2017-09-02T08:55:02.738Z,19.7
2017-09-02T09:00:03.301Z,19.7
2017-09-02T09:05:02.707Z,20.1
2017-09-02T09:10:03.336Z,20.2
2017-09-02T09:15:02.829Z,19.7
2017-09-02T09:20:02.444Z,18.7
2017-09-02T09:25:02.884Z,20.1
2017-09-02T09:30:03.308Z,20.2
2017-09-02T09:35:02.869Z,21.2
2017-09-02T09:40:02.371Z,20.7
2017-09-02T09:45:02.919Z,21.2
2017-09-02T09:50:03.393Z,21.6
2017-09-02T09:55:03.035Z,22.3
2017-09-02T10:00:02.599Z,20.2
2017-09-02T10:05:03.101Z,21.5
2017-09-02T10:10:02.622Z,21.7
2017-09-02T10:15:03.207Z,21.0
2017-09-02T10:20:02.699Z,20.7
2017-09-02T10:25:03.139Z,20.8
2017-09-02T10:30:02.687Z,21.8
2017-09-02T10:35:03.176Z,21.2
2017-09-02T10:40:02.809Z,22.6
2017-09-02T10:45:03.304Z,22.6
2017-09-02T10:50:02.805Z,21.7
2017-09-02T10:55:03.156Z,21.2
2017-09-02T11:00:02.727Z,22.0
2017-09-02T11:05:03.272Z,22.3
2017-09-02T11:10:02.763Z,22.6
2017-09-02T11:15:03.297Z,23.2
2017-09-02T11:20:02.844Z,23.6
2017-09-02T11:25:03.318Z,21.7
2017-09-02T11:30:02.992Z,20.2
2017-09-02T11:35:02.587Z,20.7
2017-09-02T11:40:03.250Z,22.7
2017-09-02T11:45:02.816Z,23.2
2017-09-02T11:50:03.264Z,22.7
2017-09-02T11:55:02.835Z,23.3
2017-09-02T12:00:03.244Z,23.8
2017-09-02T12:05:02.799Z,24.5
2017-09-02T12:10:02.391Z,23.7
2017-09-02T12:15:02.931Z,23.7
2017-09-02T12:20:02.415Z,23.8
2017-09-02T12:25:03.104Z,23.7
2017-09-02T12:30:02.519Z,24.3
2017-09-02T12:35:02.978Z,25.2
2017-09-02T12:40:02.604Z,24.3
2017-09-02T12:45:03.024Z,25.3
2017-09-02T12:50:02.619Z,23.6
2017-09-02T12:55:02.494Z,22.6
2017-09-02T13:00:03.099Z,22.2
2017-09-02T13:05:02.648Z,24.3
2017-09-02T13:10:03.085Z,25.1
2017-09-02T13:15:02.552Z,25.1
2017-09-02T13:20:03.222Z,23.7
2017-09-02T13:25:02.796Z,21.3
2017-09-02T13:30:02.367Z,21.0
2017-09-02T13:35:02.825Z,20.0
2017-09-02T13:40:02.436Z,19.5
2017-09-02T13:45:03.009Z,19.7
2017-09-02T13:50:02.509Z,19.0
2017-09-02T13:55:03.088Z,18.7
2017-09-02T14:00:02.627Z,18.8
2017-09-02T14:05:03.059Z,18.8
2017-09-02T14:10:02.608Z,19.0
2017-09-02T14:15:03.188Z,19.2
2017-09-02T14:20:02.708Z,20.1
2017-09-02T14:25:03.289Z,22.2
2017-09-02T14:30:02.695Z,24.2
2017-09-02T14:35:03.265Z,23.3
2017-09-02T14:40:02.722Z,21.7
2017-09-02T14:45:03.127Z,22.7
2017-09-02T14:50:02.658Z,23.0
2017-09-02T14:55:03.249Z,23.8
2017-09-02T15:00:02.926Z,22.7
2017-09-02T15:05:02.573Z,23.7
2017-09-02T15:10:03.238Z,24.5
2017-09-02T15:15:02.620Z,24.2
2017-09-02T15:20:03.078Z,24.3
2017-09-02T15:25:02.449Z,24.2
2017-09-02T15:30:03.008Z,24.0
2017-09-02T15:35:02.593Z,23.6
2017-09-02T15:40:03.078Z,23.3
2017-09-02T15:45:02.639Z,23.2
2017-09-02T15:50:03.211Z,21.7
2017-09-02T15:55:02.673Z,21.7
2017-09-02T16:00:03.302Z,21.2
2017-09-02T16:05:02.854Z,21.6
2017-09-02T16:10:03.336Z,22.0
2017-09-02T16:15:02.759Z,21.8
2017-09-02T16:20:02.596Z,22.1
2017-09-02T16:25:03.150Z,22.0
2017-09-02T16:30:02.598Z,21.5
2017-09-02T16:35:03.315Z,22.3
2017-09-02T16:40:02.909Z,21.8
2017-09-02T16:45:02.387Z,22.1
2017-09-02T16:50:03.080Z,20.8
2017-09-02T16:55:02.518Z,19.7
2017-09-02T17:00:02.981Z,19.3
2017-09-02T17:05:02.393Z,20.0
2017-09-02T17:10:03.102Z,20.7
2017-09-02T17:15:02.600Z,20.7
2017-09-02T17:20:03.322Z,20.7
2017-09-02T17:25:02.712Z,20.0
2017-09-02T17:30:03.128Z,20.1
2017-09-02T17:35:02.654Z,19.1
2017-09-02T17:40:03.265Z,18.7
2017-09-02T17:45:02.691Z,17.7
2017-09-02T17:50:03.112Z,17.5
2017-09-02T17:55:02.672Z,17.2
2017-09-02T18:00:03.101Z,17.1
2017-09-02T18:05:02.506Z,17.1
2017-09-02T18:10:02.979Z,17.0
2017-09-02T18:15:02.440Z,16.7
2017-09-02T18:20:03.048Z,16.6
2017-09-02T18:25:02.466Z,16.2
2017-09-02T18:30:03.050Z,16.2
2017-09-02T18:35:02.615Z,15.8
2017-09-02T18:40:03.241Z,15.5
2017-09-02T18:45:02.798Z,15.1
2017-09-02T18:50:03.230Z,15.1
2017-09-02T18:55:02.835Z,15.1
2017-09-02T19:00:02.438Z,15.0
2017-09-02T19:05:03.033Z,15.0
2017-09-02T19:10:02.454Z,14.8
2017-09-02T19:15:03.016Z,14.6
2017-09-02T19:20:02.590Z,14.5
2017-09-02T19:25:03.087Z,14.3
2017-09-02T19:30:02.500Z,14.3
2017-09-02T19:35:03.107Z,14.3
2017-09-02T19:40:02.695Z,14.0
2017-09-02T19:45:03.285Z,13.8
2017-09-02T19:50:02.831Z,13.8
2017-09-02T19:55:03.240Z,14.0
2017-09-02T20:00:02.814Z,13.8
2017-09-02T20:05:03.235Z,13.6
2017-09-02T20:10:02.762Z,13.6
2017-09-02T20:15:03.289Z,13.6
2017-09-02T20:20:02.878Z,13.1
2017-09-02T20:25:02.444Z,12.8
2017-09-02T20:30:03.028Z,12.8
2017-09-02T20:35:02.498Z,13.1
2017-09-02T20:40:03.132Z,13.3
2017-09-02T20:45:02.698Z,13.5
2017-09-02T20:50:03.284Z,13.5
2017-09-02T20:55:02.821Z,13.3
2017-09-02T21:00:03.281Z,13.1
2017-09-02T21:05:02.744Z,12.8
2017-09-02T21:10:02.370Z,12.6
2017-09-02T21:15:02.997Z,12.8
2017-09-02T21:20:02.466Z,12.6
2017-09-02T21:25:03.072Z,12.6
2017-09-02T21:30:02.575Z,12.5
2017-09-02T21:35:03.231Z,12.5
2017-09-02T21:40:02.906Z,12.3
2017-09-02T21:45:03.356Z,12.5
2017-09-02T21:50:02.745Z,12.3
2017-09-02T21:55:03.194Z,12.1
2017-09-02T22:00:02.642Z,12.0
2017-09-02T22:05:03.202Z,11.8
2017-09-02T22:10:02.828Z,11.8
2017-09-02T22:15:02.512Z,11.8
2017-09-02T22:20:02.974Z,12.0
2017-09-02T22:25:02.549Z,12.0
2017-09-02T22:30:03.011Z,12.0
2017-09-02T22:35:02.491Z,11.8
2017-09-02T22:40:03.100Z,11.6
2017-09-02T22:45:02.681Z,11.6
2017-09-02T22:50:03.197Z,11.6
2017-09-02T22:55:02.641Z,11.6
2017-09-02T23:00:03.692Z,11.3
2017-09-02T23:05:03.373Z,11.3
2017-09-02T23:10:02.927Z,11.1
2017-09-02T23:15:03.329Z,11.1
2017-09-02T23:20:02.842Z,11.1
2017-09-02T23:25:03.289Z,11.1
2017-09-02T23:30:02.880Z,11.0
2017-09-02T23:35:02.535Z,11.0
2017-09-02T23:40:03.145Z,10.8
2017-09-02T23:45:02.721Z,10.8
2017-09-02T23:50:03.220Z,10.8
2017-09-02T23:55:02.592Z,10.8
